Time;durP1;ratioP1;P1;durP2;ratioP2;P2;SDS_P1;SDS_P2;PMS_P1;PMS_P2;Temp;Humidity;BMP_temperature;BMP_pressure;BME280_temperature;BME280_humidity;BME280_pressure;Samples;Min_cycle;Max_cycle;Signal;HPM_P1;HPM_P2
2023/05/04 00:01:10;;;;;;;28.70;26.10;;;;;;;4.30;95.63;98713.77;106722;1277;22518;-78
2023/05/04 00:03:38;;;;;;;21.30;19.40;;;;;;;4.26;95.35;98710.66;106716;1277;24379;-78
2023/05/04 00:06:06;;;;;;;15.40;13.90;;;;;;;4.22;95.71;98711.38;106728;1277;22541;-78
2023/05/04 00:08:34;;;;;;;14.80;13.10;;;;;;;4.16;95.22;98711.89;106761;1277;22649;-78
2023/05/04 00:11:02;;;;;;;12.90;11.70;;;;;;;4.14;95.36;98705.92;106627;1277;22655;-79
2023/05/04 00:13:30;;;;;;;12.10;10.80;;;;;;;4.14;95.33;98701.45;106656;1277;25376;-79
2023/05/04 00:15:58;;;;;;;13.20;11.00;;;;;;;4.15;95.68;98699.90;106724;1277;22548;-78
2023/05/04 00:18:26;;;;;;;15.00;13.60;;;;;;;4.17;95.34;98696.70;106685;1254;25601;-78
2023/05/04 00:20:54;;;;;;;15.20;13.30;;;;;;;4.18;95.73;98690.86;106669;1277;24528;-78
2023/05/04 00:23:22;;;;;;;13.20;11.90;;;;;;;4.18;95.39;98688.09;106805;1277;22562;-78
2023/05/04 00:25:50;;;;;;;15.70;11.30;;;;;;;4.15;95.14;98685.63;106612;1277;25497;-78
2023/05/04 00:28:18;;;;;;;12.10;10.80;;;;;;;4.11;95.09;98687.46;106806;1278;22521;-78
2023/05/04 00:30:46;;;;;;;12.50;10.50;;;;;;;4.09;95.10;98686.44;106776;1277;22532;-78
2023/05/04 00:33:14;;;;;;;13.70;9.60;;;;;;;4.08;94.63;98687.30;106644;1277;24070;-78
2023/05/04 00:35:42;;;;;;;12.50;9.70;;;;;;;4.08;94.87;98688.34;106781;1277;22973;-78
2023/05/04 00:38:11;;;;;;;12.60;8.60;;;;;;;4.10;95.04;98688.00;106652;1277;22596;-78
2023/05/04 00:40:40;;;;;;;13.80;11.30;;;;;;;4.11;95.37;98686.67;106730;1277;22523;-78
2023/05/04 00:43:08;;;;;;;11.40;10.30;;;;;;;4.13;95.46;98685.79;106715;1277;25258;-79
2023/05/04 00:45:37;;;;;;;12.90;11.10;;;;;;;4.14;95.29;98682.52;106708;1277;22589;-78
2023/05/04 00:48:05;;;;;;;14.80;13.40;;;;;;;4.16;95.41;98686.23;106654;1277;22514;-78
2023/05/04 00:50:35;;;;;;;11.90;10.60;;;;;;;4.20;95.51;98685.71;106846;1277;24193;-79
2023/05/04 00:53:08;;;;;;;13.10;11.80;;;;;;;4.25;95.42;98683.42;106638;1277;22634;-78
2023/05/04 00:55:42;;;;;;;13.30;11.30;;;;;;;4.30;94.78;98683.45;106772;1277;22538;-78
2023/05/04 00:58:10;;;;;;;15.70;13.10;;;;;;;4.34;94.89;98683.52;106580;1277;26538;-78
2023/05/04 01:00:38;;;;;;;14.50;13.00;;;;;;;4.34;95.01;98685.02;106802;1277;22591;-78
2023/05/04 01:03:09;;;;;;;13.50;12.20;;;;;;;4.31;94.92;98684.17;106614;1277;22791;-78
2023/05/04 01:05:44;;;;;;;14.10;12.80;;;;;;;4.29;94.73;98680.47;106858;1277;22631;-78
2023/05/04 01:08:16;;;;;;;28.20;25.70;;;;;;;4.27;94.60;98674.94;106798;1277;24193;-78
2023/05/04 01:10:53;;;;;;;29.50;26.50;;;;;;;4.26;94.30;98676.39;106673;1277;24395;-78
2023/05/04 01:13:21;;;;;;;15.30;11.90;;;;;;;4.20;94.09;98676.61;106723;1277;22565;-77
2023/05/04 01:15:49;;;;;;;19.00;17.30;;;;;;;4.14;94.19;98674.92;106726;1277;25468;-77
2023/05/04 01:18:17;;;;;;;31.40;28.80;;;;;;;4.11;94.19;98674.94;106643;1277;25572;-77
2023/05/04 01:20:45;;;;;;;19.50;17.70;;;;;;;4.10;94.42;98677.65;106850;1276;22643;-77
2023/05/04 01:23:13;;;;;;;12.50;11.40;;;;;;;4.07;93.99;98674.54;106879;1277;24237;-78
2023/05/04 01:25:46;;;;;;;13.40;10.30;;;;;;;4.02;94.14;98673.83;106758;1277;25672;-77
2023/05/04 01:28:22;;;;;;;9.90;8.30;;;;;;;3.99;94.01;98673.84;106676;1257;24317;-79
2023/05/04 01:30:59;;;;;;;15.30;8.30;;;;;;;3.96;93.95;98677.09;106848;1277;22636;-77
2023/05/04 01:33:28;;;;;;;12.90;8.00;;;;;;;3.95;93.78;98673.99;106858;1277;25449;-77
2023/05/04 01:35:58;;;;;;;9.70;8.10;;;;;;;3.92;93.78;98669.88;106870;1277;22580;-78
2023/05/04 01:38:27;;;;;;;9.40;8.10;;;;;;;3.89;93.98;98670.93;106869;1277;22589;-78
2023/05/04 01:40:55;;;;;;;8.00;7.20;;;;;;;3.86;93.83;98672.10;106859;1277;23758;-78
2023/05/04 01:43:24;;;;;;;9.20;8.10;;;;;;;3.83;93.82;98671.19;106802;1277;24389;-78
2023/05/04 01:45:52;;;;;;;9.60;7.20;;;;;;;3.80;93.71;98666.92;106689;1277;22531;-78
2023/05/04 01:48:20;;;;;;;9.40;7.00;;;;;;;3.80;93.75;98667.13;106661;1277;24327;-78
2023/05/04 01:50:48;;;;;;;20.00;8.40;;;;;;;3.82;93.80;98663.41;106669;1277;25315;-77
2023/05/04 01:53:15;;;;;;;9.30;8.40;;;;;;;3.82;93.53;98656.89;106645;1277;22546;-78
2023/05/04 01:55:44;;;;;;;9.40;7.60;;;;;;;3.78;93.69;98661.59;106617;1277;22562;-78
2023/05/04 01:58:12;;;;;;;8.40;7.30;;;;;;;3.75;93.29;98656.21;106533;1277;24346;-77
2023/05/04 02:00:40;;;;;;;11.90;7.10;;;;;;;3.73;93.79;98656.90;106662;1259;23906;-77
2023/05/04 02:03:09;;;;;;;8.10;6.70;;;;;;;3.73;93.81;98660.54;106538;1277;23115;-78
2023/05/04 02:05:38;;;;;;;10.80;7.40;;;;;;;3.75;93.69;98659.08;106550;1277;22673;-78
2023/05/04 02:08:06;;;;;;;8.70;7.00;;;;;;;3.76;93.44;98659.95;106548;1277;23882;-78
2023/05/04 02:10:33;;;;;;;8.30;6.70;;;;;;;3.76;93.39;98653.63;106698;1277;22577;-78
2023/05/04 02:13:01;;;;;;;8.10;7.30;;;;;;;3.75;93.44;98651.67;106662;1277;22521;-78
2023/05/04 02:15:30;;;;;;;9.30;8.10;;;;;;;3.71;93.38;98651.65;106712;1277;23180;-77
2023/05/04 02:17:58;;;;;;;9.50;7.40;;;;;;;3.67;93.06;98649.43;106719;1277;22642;-77
2023/05/04 02:20:26;;;;;;;9.90;7.10;;;;;;;3.63;93.35;98646.38;106639;1277;25366;-78
2023/05/04 02:22:54;;;;;;;9.70;7.30;;;;;;;3.62;92.71;98650.02;106704;1277;24195;-78
2023/05/04 02:25:22;;;;;;;10.20;7.80;;;;;;;3.58;93.05;98649.48;106570;1277;24194;-78
2023/05/04 02:27:50;;;;;;;8.10;7.20;;;;;;;3.55;92.94;98649.40;106693;1277;25416;-79
2023/05/04 02:30:18;;;;;;;7.20;6.50;;;;;;;3.52;92.89;98647.70;106902;1277;24200;-80
2023/05/04 02:32:46;;;;;;;8.30;6.90;;;;;;;3.48;93.07;98651.44;106953;1277;22640;-80
2023/05/04 02:35:15;;;;;;;8.10;6.80;;;;;;;3.41;92.76;98652.02;106661;1277;24256;-78
2023/05/04 02:37:43;;;;;;;11.80;10.70;;;;;;;3.31;92.50;98647.55;106880;1277;23650;-79
2023/05/04 02:40:11;;;;;;;12.10;10.50;;;;;;;3.17;92.55;98648.27;106767;1277;22532;-78
2023/05/04 02:42:39;;;;;;;21.20;19.40;;;;;;;3.10;92.66;98646.92;106577;1277;24399;-78
2023/05/04 02:45:08;;;;;;;23.70;21.80;;;;;;;3.07;92.81;98650.04;106727;1262;24199;-76
2023/05/04 02:47:36;;;;;;;16.20;13.10;;;;;;;3.07;93.00;98647.29;106474;1277;26767;-78
2023/05/04 02:50:04;;;;;;;10.80;9.80;;;;;;;3.09;93.50;98647.02;106606;1276;23543;-79
2023/05/04 02:52:33;;;;;;;17.30;15.50;;;;;;;3.12;93.44;98645.97;106685;1277;22598;-80
2023/05/04 02:55:04;;;;;;;8.70;7.80;;;;;;;3.13;93.25;98650.63;106766;1277;22548;-79
2023/05/04 02:57:32;;;;;;;8.90;7.40;;;;;;;3.17;93.33;98653.58;106919;1277;25617;-78
2023/05/04 03:00:00;;;;;;;11.30;10.20;;;;;;;3.25;93.37;98651.78;106862;1277;22634;-79
2023/05/04 03:02:28;;;;;;;11.60;9.20;;;;;;;3.27;93.00;98654.03;107031;1277;22557;-79
2023/05/04 03:04:56;;;;;;;22.90;21.10;;;;;;;3.30;93.08;98653.54;107211;1277;23898;-79
2023/05/04 03:07:26;;;;;;;18.50;16.60;;;;;;;3.33;93.21;98654.14;106832;1277;22643;-79
2023/05/04 03:09:54;;;;;;;14.10;12.80;;;;;;;3.32;93.35;98655.46;106826;1277;22870;-79
2023/05/04 03:12:23;;;;;;;13.10;11.00;;;;;;;3.33;93.10;98655.80;106837;1277;22592;-79
2023/05/04 03:14:51;;;;;;;16.90;15.20;;;;;;;3.29;92.73;98658.80;106849;1277;24349;-79
2023/05/04 03:17:19;;;;;;;13.90;12.40;;;;;;;3.27;92.75;98657.16;106778;1277;22563;-78
2023/05/04 03:19:47;;;;;;;9.40;8.40;;;;;;;3.27;92.90;98657.85;106759;1277;25252;-81
2023/05/04 03:22:15;;;;;;;10.20;9.20;;;;;;;3.28;92.60;98660.75;106618;1277;22646;-77
2023/05/04 03:24:43;;;;;;;10.90;9.30;;;;;;;3.28;92.99;98660.54;106830;1277;25619;-78
2023/05/04 03:27:12;;;;;;;11.50;8.50;;;;;;;3.30;92.94;98662.61;106722;1277;22521;-78
2023/05/04 03:29:41;;;;;;;10.70;7.40;;;;;;;3.28;92.48;98661.70;106543;1277;26967;-78
2023/05/04 03:32:11;;;;;;;17.00;15.20;;;;;;;3.16;92.17;98659.42;106582;1277;22645;-78
2023/05/04 03:34:41;;;;;;;14.70;13.10;;;;;;;3.14;92.50;98657.21;106549;1277;22975;-78
2023/05/04 03:37:09;;;;;;;15.20;13.70;;;;;;;3.18;92.88;98658.25;106560;1277;23377;-78
2023/05/04 03:39:37;;;;;;;11.40;10.30;;;;;;;3.25;92.72;98658.23;106413;1263;25399;-79
2023/05/04 03:42:05;;;;;;;10.90;8.60;;;;;;;3.31;92.84;98656.38;106471;1277;24346;-78
2023/05/04 03:44:33;;;;;;;9.60;8.50;;;;;;;3.32;92.73;98657.79;106722;1277;22574;-78
2023/05/04 03:47:01;;;;;;;12.60;11.20;;;;;;;3.25;92.46;98665.22;106768;1277;22636;-78
2023/05/04 03:49:30;;;;;;;13.10;10.50;;;;;;;3.16;92.77;98663.48;106493;1277;22634;-78
2023/05/04 03:51:58;;;;;;;11.70;10.60;;;;;;;3.10;92.57;98665.47;106602;1277;22757;-78
2023/05/04 03:54:26;;;;;;;11.70;10.50;;;;;;;3.09;92.84;98662.78;106683;1277;23908;-78
2023/05/04 03:56:54;;;;;;;14.50;10.70;;;;;;;3.11;92.40;98663.99;106563;1277;22584;-78
2023/05/04 03:59:23;;;;;;;13.30;12.00;;;;;;;3.12;92.71;98660.98;106735;1277;23029;-78
2023/05/04 04:01:51;;;;;;;13.30;12.00;;;;;;;3.16;93.02;98660.53;106753;1277;22671;-78
2023/05/04 04:04:19;;;;;;;11.50;10.40;;;;;;;3.17;93.00;98656.83;106709;1277;23188;-78
2023/05/04 04:06:47;;;;;;;11.00;9.80;;;;;;;3.18;93.03;98657.97;106705;1277;22567;-79
2023/05/04 04:09:15;;;;;;;11.10;10.00;;;;;;;3.23;93.05;98658.73;106781;1277;22518;-78
2023/05/04 04:11:43;;;;;;;12.30;10.60;;;;;;;3.30;92.86;98655.63;106830;1277;22728;-77
2023/05/04 04:14:11;;;;;;;13.70;9.20;;;;;;;3.37;93.22;98660.69;106818;1277;22636;-78
2023/05/04 04:16:39;;;;;;;15.10;9.80;;;;;;;3.45;93.17;98656.58;106932;1277;25428;-78
2023/05/04 04:19:07;;;;;;;8.90;7.70;;;;;;;3.52;93.37;98659.39;106953;1269;22649;-77
2023/05/04 04:21:36;;;;;;;11.80;10.60;;;;;;;3.60;93.50;98660.34;106898;1277;23149;-78
2023/05/04 04:24:04;;;;;;;9.50;8.50;;;;;;;3.72;93.30;98663.40;106786;1277;23908;-79
2023/05/04 04:26:32;;;;;;;7.80;6.40;;;;;;;3.83;93.03;98666.45;106482;1277;22696;-79
2023/05/04 04:29:00;;;;;;;8.00;7.20;;;;;;;3.93;92.89;98669.90;106889;1277;25413;-77
2023/05/04 04:31:29;;;;;;;11.00;10.00;;;;;;;4.04;93.56;98667.93;106641;1277;24375;-78
2023/05/04 04:33:58;;;;;;;21.20;19.10;;;;;;;4.14;93.42;98666.52;106741;1277;22765;-77
2023/05/04 04:36:26;;;;;;;56.40;26.40;;;;;;;4.24;93.60;98665.47;106834;1277;22781;-78
2023/05/04 04:38:54;;;;;;;27.80;24.10;;;;;;;4.35;93.67;98664.34;106613;1277;22772;-77
2023/05/04 04:41:23;;;;;;;21.60;18.20;;;;;;;4.46;93.82;98668.27;106554;1277;22519;-77
2023/05/04 04:43:51;;;;;;;24.70;16.00;;;;;;;4.59;93.64;98665.15;106691;1277;25448;-76
2023/05/04 04:46:19;;;;;;;20.10;14.60;;;;;;;4.73;93.49;98666.18;106558;1277;22523;-75
2023/05/04 04:48:48;;;;;;;18.60;14.10;;;;;;;4.88;93.39;98659.91;106627;1255;24270;-76
2023/05/04 04:51:16;;;;;;;17.10;13.10;;;;;;;5.02;93.34;98656.07;106589;1277;22535;-76
2023/05/04 04:53:44;;;;;;;18.90;14.50;;;;;;;5.14;93.41;98660.27;106523;1277;22608;-76
2023/05/04 04:56:12;;;;;;;17.10;14.40;;;;;;;5.25;93.38;98666.09;106561;1277;22532;-76
2023/05/04 04:58:40;;;;;;;17.60;15.80;;;;;;;5.35;93.41;98670.34;106559;1277;24361;-76
2023/05/04 05:01:08;;;;;;;18.80;16.50;;;;;;;5.43;93.28;98669.92;106534;1277;22624;-77
2023/05/04 05:03:36;;;;;;;15.30;13.80;;;;;;;5.53;93.31;98671.61;106654;1277;24403;-77
2023/05/04 05:06:04;;;;;;;17.70;11.50;;;;;;;5.65;93.14;98670.80;106595;1277;22794;-77
2023/05/04 05:08:32;;;;;;;16.20;14.50;;;;;;;5.78;93.05;98675.73;106550;1277;22518;-77
2023/05/04 05:11:00;;;;;;;16.20;14.60;;;;;;;5.94;93.18;98671.66;106587;1277;22616;-77
2023/05/04 05:13:31;;;;;;;14.70;13.00;;;;;;;6.08;93.08;98673.86;106698;1277;22633;-77
2023/05/04 05:15:59;;;;;;;16.50;14.00;;;;;;;6.22;93.02;98673.49;106555;1277;22668;-76
2023/05/04 05:18:28;;;;;;;16.40;13.00;;;;;;;6.36;93.05;98674.40;106511;1277;25374;-75
2023/05/04 05:20:56;;;;;;;13.60;11.20;;;;;;;6.52;93.00;98672.52;106585;1277;24222;-80
2023/05/04 05:23:24;;;;;;;14.00;11.30;;;;;;;6.68;92.98;98674.81;106532;1277;25514;-76
2023/05/04 05:25:52;;;;;;;12.50;10.90;;;;;;;6.84;92.77;98679.98;107184;1277;22797;-75
2023/05/04 05:28:20;;;;;;;12.70;11.40;;;;;;;6.99;92.31;98680.70;106703;1277;24487;-73
2023/05/04 05:30:50;;;;;;;16.90;10.80;;;;;;;7.15;92.19;98682.48;106627;1277;22821;-75
2023/05/04 05:33:19;;;;;;;14.40;11.10;;;;;;;7.30;91.82;98679.74;106600;1277;25520;-75
2023/05/04 05:35:47;;;;;;;13.20;10.60;;;;;;;7.42;91.68;98678.42;106710;1277;24225;-75
2023/05/04 05:38:16;;;;;;;15.30;12.30;;;;;;;7.54;91.74;98680.33;106674;1277;25271;-75
2023/05/04 05:40:44;;;;;;;14.30;11.20;;;;;;;7.65;91.62;98679.27;106825;1277;25248;-77
2023/05/04 05:43:12;;;;;;;17.00;12.30;;;;;;;7.77;91.36;98680.02;106865;1277;22521;-77
2023/05/04 05:45:40;;;;;;;21.00;12.00;;;;;;;7.85;90.91;98684.63;106807;1277;22524;-77
2023/05/04 05:48:08;;;;;;;17.50;12.00;;;;;;;7.93;90.66;98682.56;106675;1277;177974;-78
2023/05/04 05:50:36;;;;;;;14.50;10.90;;;;;;;8.01;89.99;98685.27;106900;1277;22515;-77
2023/05/04 05:53:04;;;;;;;13.40;11.10;;;;;;;8.11;89.98;98684.23;106880;1277;24333;-77
2023/05/04 05:55:32;;;;;;;12.60;10.90;;;;;;;8.24;90.00;98683.21;106612;1277;24198;-76
2023/05/04 05:58:00;;;;;;;13.90;10.30;;;;;;;8.37;89.60;98684.98;106598;1277;24193;-76
2023/05/04 06:00:28;;;;;;;13.70;9.50;;;;;;;8.49;89.53;98686.48;106600;1277;25163;-76
2023/05/04 06:02:56;;;;;;;11.50;8.80;;;;;;;8.60;89.11;98687.14;106604;1277;26777;-75
2023/05/04 06:05:24;;;;;;;10.60;9.60;;;;;;;8.70;88.50;98684.42;106592;1277;24242;-76
2023/05/04 06:07:52;;;;;;;10.40;9.40;;;;;;;8.80;88.04;98684.48;106591;1277;25246;-76
2023/05/04 06:10:20;;;;;;;11.00;9.00;;;;;;;8.91;88.34;98682.23;106593;1277;25338;-76
2023/05/04 06:12:47;;;;;;;11.30;9.90;;;;;;;8.99;87.85;98680.66;106709;1277;24361;-76
2023/05/04 06:15:16;;;;;;;12.20;9.20;;;;;;;9.09;87.50;98680.89;106704;1277;22637;-76
2023/05/04 06:17:44;;;;;;;12.20;8.80;;;;;;;9.18;86.57;98683.02;106725;1277;22541;-76
2023/05/04 06:20:12;;;;;;;14.90;9.40;;;;;;;9.27;86.10;98683.40;106777;1277;26682;-76
2023/05/04 06:22:40;;;;;;;11.00;8.70;;;;;;;9.36;86.04;98684.89;106817;1277;26617;-78
2023/05/04 06:25:08;;;;;;;9.90;7.60;;;;;;;9.49;86.23;98682.66;106831;1277;22990;-77
2023/05/04 06:27:36;;;;;;;11.60;7.60;;;;;;;9.64;86.06;98685.20;106802;1277;22542;-77
2023/05/04 06:30:05;;;;;;;9.50;8.50;;;;;;;9.80;86.01;98684.09;106654;1277;22525;-77
2023/05/04 06:32:34;;;;;;;12.00;8.60;;;;;;;9.93;85.53;98691.33;106729;1277;22544;-77
2023/05/04 06:35:02;;;;;;;10.50;8.30;;;;;;;10.02;83.89;98688.10;106612;1277;25524;-76
2023/05/04 06:37:30;;;;;;;10.80;8.20;;;;;;;10.10;83.29;98685.12;106608;1277;24341;-77
2023/05/04 06:39:58;;;;;;;13.50;8.90;;;;;;;10.21;82.36;98687.91;106651;1277;22524;-77
2023/05/04 06:42:30;;;;;;;12.90;8.60;;;;;;;10.31;81.77;98689.67;106572;1277;25406;-76
2023/05/04 06:44:58;;;;;;;8.70;6.60;;;;;;;10.43;82.00;98678.73;106682;1277;25402;-76
2023/05/04 06:47:26;;;;;;;11.40;7.00;;;;;;;10.56;82.55;98679.23;106589;1277;22532;-76
2023/05/04 06:49:54;;;;;;;10.30;6.60;;;;;;;10.69;82.12;98678.41;106698;1277;25393;-76
2023/05/04 06:52:22;;;;;;;10.20;6.70;;;;;;;10.84;82.35;98673.45;106728;1277;22539;-77
2023/05/04 06:54:50;;;;;;;11.90;6.10;;;;;;;11.02;82.34;98673.02;106629;1277;22528;-77
2023/05/04 06:57:18;;;;;;;9.40;5.30;;;;;;;11.19;81.71;98679.48;106646;1255;22543;-78
2023/05/04 06:59:46;;;;;;;8.20;5.10;;;;;;;11.35;81.79;98679.70;106860;1277;25220;-77
2023/05/04 07:02:13;;;;;;;9.60;6.00;;;;;;;11.50;79.45;98679.67;106868;1277;23794;-79
2023/05/04 07:04:41;;;;;;;6.20;4.80;;;;;;;11.66;79.55;98679.16;106974;1277;23899;-76
2023/05/04 07:07:09;;;;;;;6.80;4.60;;;;;;;11.83;78.89;98675.16;106902;1277;25319;-76
2023/05/04 07:09:37;;;;;;;7.30;5.50;;;;;;;11.92;75.50;98675.19;106862;1277;24049;-76
2023/05/04 07:12:05;;;;;;;6.10;4.40;;;;;;;12.01;75.18;98673.73;106723;1277;22533;-77
2023/05/04 07:14:33;;;;;;;5.20;3.50;;;;;;;12.13;76.48;98676.89;106776;1277;25370;-79
2023/05/04 07:17:01;;;;;;;7.00;4.30;;;;;;;12.23;74.05;98685.94;106730;1277;25400;-79
2023/05/04 07:19:29;;;;;;;9.40;4.80;;;;;;;12.29;71.99;98683.82;106984;1277;22561;-77
2023/05/04 07:21:59;;;;;;;8.30;4.50;;;;;;;12.31;69.22;98679.67;106972;1277;22611;-77
2023/05/04 07:24:30;;;;;;;8.30;3.60;;;;;;;12.36;70.12;98679.94;106835;1277;22558;-77
2023/05/04 07:26:58;;;;;;;6.90;4.90;;;;;;;12.47;69.97;98681.68;106798;1277;22548;-76
2023/05/04 07:29:26;;;;;;;6.30;4.00;;;;;;;12.59;69.63;98680.86;106512;1277;24222;-76
2023/05/04 07:31:54;;;;;;;6.00;4.20;;;;;;;12.70;68.57;98681.02;106820;1277;22639;-75
2023/05/04 07:34:22;;;;;;;9.10;5.70;;;;;;;12.79;65.83;98678.29;106924;1277;24305;-76
2023/05/04 07:37:09;;;;;;;5.60;4.00;;;;;;;12.88;66.48;98679.27;106917;1277;22556;-75
2023/05/04 07:39:37;;;;;;;8.30;4.40;;;;;;;12.99;67.52;98680.95;106792;1270;22523;-76
2023/05/04 07:42:06;;;;;;;6.70;4.30;;;;;;;13.07;64.03;98686.98;106704;1277;24218;-76
2023/05/04 07:44:35;;;;;;;6.50;4.30;;;;;;;12.99;57.98;98685.70;106587;1277;23947;-77
2023/05/04 07:47:03;;;;;;;8.20;6.60;;;;;;;12.91;58.35;98687.13;106591;1277;22630;-77
2023/05/04 07:49:32;;;;;;;7.30;4.50;;;;;;;12.86;61.19;98689.65;106614;1277;25289;-77
2023/05/04 07:52:00;;;;;;;5.80;4.70;;;;;;;12.79;63.26;98685.90;106937;1277;24246;-77
2023/05/04 07:54:28;;;;;;;6.80;5.00;;;;;;;12.76;64.24;98689.70;106667;1277;22601;-76
2023/05/04 07:56:56;;;;;;;7.60;4.60;;;;;;;12.85;65.25;98686.48;106663;1277;25473;-77
2023/05/04 07:59:24;;;;;;;6.80;4.60;;;;;;;13.00;64.70;98683.30;106571;1277;22532;-77
2023/05/04 08:01:52;;;;;;;7.90;4.40;;;;;;;13.16;62.14;98687.80;106626;1277;22640;-77
2023/05/04 08:04:20;;;;;;;8.30;4.60;;;;;;;13.28;61.04;98689.85;106759;1277;24481;-76
2023/05/04 08:06:48;;;;;;;5.80;3.90;;;;;;;13.40;60.71;98687.16;106738;1277;23027;-77
2023/05/04 08:09:17;;;;;;;6.90;5.10;;;;;;;13.51;59.22;98692.44;106613;1277;24226;-77
2023/05/04 08:11:45;;;;;;;7.60;5.40;;;;;;;13.57;58.89;98687.83;106636;1277;25323;-76
2023/05/04 08:14:15;;;;;;;7.50;4.90;;;;;;;13.62;58.58;98688.13;106671;1277;22595;-77
2023/05/04 08:16:46;;;;;;;6.70;4.80;;;;;;;13.73;58.51;98689.81;106844;1277;22797;-77
2023/05/04 08:19:14;;;;;;;7.10;4.90;;;;;;;13.86;59.04;98683.52;106939;1277;25452;-76
2023/05/04 08:21:42;;;;;;;10.60;4.80;;;;;;;13.92;57.17;98688.70;106983;1277;22636;-77
2023/05/04 08:24:10;;;;;;;6.40;4.30;;;;;;;13.94;56.97;98689.36;106984;1277;25494;-75
2023/05/04 08:26:38;;;;;;;7.20;4.70;;;;;;;14.01;58.33;98691.02;106607;1277;24436;-75
2023/05/04 08:29:09;;;;;;;8.10;5.10;;;;;;;14.06;57.23;98691.14;106562;1277;25622;-76
2023/05/04 08:31:39;;;;;;;5.10;4.50;;;;;;;14.09;57.50;98692.21;106644;1277;22634;-76
2023/05/04 08:34:07;;;;;;;6.70;4.40;;;;;;;14.13;55.76;98693.84;106670;1277;22528;-78
2023/05/04 08:36:35;;;;;;;8.80;5.60;;;;;;;14.22;57.17;98691.23;106892;1277;24433;-77
2023/05/04 08:39:03;;;;;;;6.20;5.10;;;;;;;14.33;55.78;98692.91;106668;1277;24438;-77
2023/05/04 08:41:32;;;;;;;7.30;4.80;;;;;;;14.39;55.35;98692.77;106711;1277;26513;-78
2023/05/04 08:44:00;;;;;;;5.10;4.20;;;;;;;14.48;55.89;98689.75;106993;1277;22473;-75
2023/05/04 08:46:31;;;;;;;6.30;4.00;;;;;;;14.53;55.63;98687.39;106650;1277;24189;-76
2023/05/04 08:48:59;;;;;;;6.90;4.50;;;;;;;14.61;55.22;98684.55;106613;1277;23538;-76
2023/05/04 08:51:30;;;;;;;6.40;4.30;;;;;;;14.64;51.58;98680.50;106738;1265;22648;-76
2023/05/04 08:53:58;;;;;;;6.90;4.50;;;;;;;14.47;51.21;98677.83;107057;1277;22637;-75
2023/05/04 08:56:26;;;;;;;9.70;4.60;;;;;;;14.49;51.95;98683.56;106866;1277;24337;-76
2023/05/04 08:59:00;;;;;;;7.40;4.80;;;;;;;14.58;51.90;98680.73;106610;1277;25333;-76
2023/05/04 09:01:30;;;;;;;6.70;4.50;;;;;;;14.60;52.72;98686.05;106663;1277;25573;-76
2023/05/04 09:04:01;;;;;;;5.80;4.20;;;;;;;14.75;51.72;98688.22;106916;1277;25235;-76
2023/05/04 09:06:30;;;;;;;10.50;6.50;;;;;;;14.85;52.94;98686.67;107034;1277;22660;-77
2023/05/04 09:08:58;;;;;;;7.70;4.70;;;;;;;14.93;52.09;98683.33;106953;1277;22527;-75
2023/05/04 09:11:26;;;;;;;7.10;3.90;;;;;;;15.11;52.33;98685.08;106918;1277;23945;-76
2023/05/04 09:13:54;;;;;;;10.00;4.10;;;;;;;15.30;51.38;98687.66;106900;1277;22643;-75
2023/05/04 09:16:32;;;;;;;8.60;4.90;;;;;;;15.40;50.83;98686.64;106748;1268;22764;-75
2023/05/04 09:19:00;;;;;;;8.70;4.30;;;;;;;15.33;51.45;98692.41;106897;1277;23115;-75
2023/05/04 09:21:30;;;;;;;8.30;5.10;;;;;;;15.10;51.31;98689.61;106673;1277;25221;-75
2023/05/04 09:23:58;;;;;;;7.90;4.70;;;;;;;15.05;52.14;98686.70;106735;1277;25323;-75
2023/05/04 09:26:27;;;;;;;6.80;4.90;;;;;;;15.15;51.19;98685.20;106614;1277;24319;-75
2023/05/04 09:28:55;;;;;;;6.80;4.30;;;;;;;15.21;50.68;98685.27;106625;1277;22541;-76
2023/05/04 09:31:23;;;;;;;9.00;4.80;;;;;;;15.04;50.75;98685.56;106642;1277;25523;-76
2023/05/04 09:33:52;;;;;;;9.30;4.70;;;;;;;14.98;49.65;98686.42;106637;1277;24173;-77
2023/05/04 09:36:21;;;;;;;5.90;4.50;;;;;;;14.91;49.69;98684.27;106853;1277;22546;-76
2023/05/04 09:38:49;;;;;;;7.40;4.80;;;;;;;14.99;51.32;98679.11;106759;1277;22764;-76
2023/05/04 09:41:18;;;;;;;6.60;4.60;;;;;;;15.23;51.24;98674.85;106484;1277;24420;-76
2023/05/04 09:43:46;;;;;;;5.90;4.30;;;;;;;15.35;50.44;98674.50;106727;1277;22524;-78
2023/05/04 09:46:18;;;;;;;7.20;4.00;;;;;;;15.33;49.96;98670.78;106809;1277;26233;-77
2023/05/04 09:48:55;;;;;;;7.00;5.60;;;;;;;15.27;50.03;98674.41;106833;1277;24208;-77
2023/05/04 09:51:26;;;;;;;8.10;5.30;;;;;;;15.07;50.15;98673.23;106939;1277;22541;-77
2023/05/04 09:53:56;;;;;;;7.40;4.30;;;;;;;15.09;49.37;98668.46;106876;1277;23306;-78
2023/05/04 09:56:46;;;;;;;7.20;4.00;;;;;;;15.24;50.45;98660.16;107016;1277;22696;-77
2023/05/04 09:59:16;;;;;;;7.00;4.30;;;;;;;15.43;49.68;98661.63;107028;1277;22577;-76
2023/05/04 10:01:45;;;;;;;6.90;4.70;;;;;;;15.60;48.87;98654.81;107011;1277;22782;-76
2023/05/04 10:04:13;;;;;;;7.70;5.60;;;;;;;15.78;49.10;98653.60;107044;1277;25013;-77
2023/05/04 10:06:42;;;;;;;7.00;4.50;;;;;;;16.00;48.66;98651.89;107046;1277;22645;-77
2023/05/04 10:09:11;;;;;;;6.20;4.50;;;;;;;16.22;48.34;98653.81;106955;1277;22707;-77
2023/05/04 10:11:41;;;;;;;9.10;4.70;;;;;;;16.45;49.47;98653.49;106952;1277;25469;-78
2023/05/04 10:14:09;;;;;;;6.40;4.30;;;;;;;16.67;48.41;98651.93;106896;1277;22583;-76
2023/05/04 10:16:50;;;;;;;7.30;4.50;;;;;;;16.79;48.13;98644.78;106648;1277;23702;-77
2023/05/04 10:19:38;;;;;;;8.00;4.80;;;;;;;16.94;48.23;98638.88;107028;1277;22636;-78
2023/05/04 10:22:24;;;;;;;7.10;4.70;;;;;;;17.06;47.70;98636.95;106906;1277;22633;-78
2023/05/04 10:25:21;;;;;;;7.90;4.50;;;;;;;16.91;46.75;98634.41;106855;1277;24365;-78
2023/05/04 10:27:52;;;;;;;6.80;4.30;;;;;;;16.90;45.55;98631.43;106874;1277;22731;-79
2023/05/04 10:30:20;;;;;;;7.00;4.40;;;;;;;16.92;45.94;98631.90;106924;1277;22528;-78
2023/05/04 10:32:54;;;;;;;5.20;3.50;;;;;;;17.07;46.14;98631.21;106948;1277;22549;-77
2023/05/04 10:35:23;;;;;;;8.90;4.50;;;;;;;17.19;47.02;98624.10;106917;1256;24222;-76
2023/05/04 10:37:55;;;;;;;10.50;4.40;;;;;;;17.35;46.26;98625.80;106805;1277;22523;-77
2023/05/04 10:40:37;;;;;;;7.60;4.30;;;;;;;17.47;45.78;98623.12;106997;1277;24246;-78
2023/05/04 10:43:06;;;;;;;5.60;4.00;;;;;;;17.53;46.06;98624.89;107134;1277;22558;-76
2023/05/04 10:45:38;;;;;;;6.50;3.80;;;;;;;17.64;46.52;98621.92;107058;1277;25353;-77
2023/05/04 10:48:07;;;;;;;6.70;4.20;;;;;;;17.77;45.66;98620.89;106900;1277;22553;-76
2023/05/04 10:50:48;;;;;;;6.90;4.50;;;;;;;17.80;44.18;98617.05;106831;1277;22536;-77
2023/05/04 10:53:17;;;;;;;6.90;4.00;;;;;;;17.85;44.34;98613.52;106865;1277;22574;-77
2023/05/04 10:55:47;;;;;;;8.10;4.50;;;;;;;17.91;44.91;98609.21;106843;1277;24872;-76
2023/05/04 10:58:17;;;;;;;7.00;5.00;;;;;;;18.02;44.78;98613.88;106897;1277;24184;-77
2023/05/04 11:00:47;;;;;;;6.70;4.70;;;;;;;18.09;44.35;98612.04;107002;1253;22530;-76
2023/05/04 11:03:15;;;;;;;8.00;4.50;;;;;;;18.20;44.84;98607.17;107200;1277;25405;-77
2023/05/04 11:05:53;;;;;;;5.60;4.00;;;;;;;18.26;43.53;98605.90;106890;1266;22620;-77
2023/05/04 11:08:25;;;;;;;7.20;4.60;;;;;;;18.23;43.67;98603.61;106925;1277;22482;-78
2023/05/04 11:11:01;;;;;;;7.00;4.00;;;;;;;18.24;43.88;98603.11;106948;1277;22536;-76
2023/05/04 11:13:30;;;;;;;6.10;4.40;;;;;;;18.37;43.75;98597.27;106947;1277;22571;-77
2023/05/04 11:15:59;;;;;;;7.60;5.80;;;;;;;18.48;42.79;98599.77;106976;1277;22583;-77
2023/05/04 11:18:36;;;;;;;9.20;4.80;;;;;;;18.53;42.50;98598.41;106904;1277;24277;-77
2023/05/04 11:21:04;;;;;;;6.00;3.70;;;;;;;18.64;42.00;98594.60;106866;1277;22659;-79
2023/05/04 11:23:32;;;;;;;5.50;4.30;;;;;;;18.62;41.48;98591.56;106908;1277;24187;-78
2023/05/04 11:26:06;;;;;;;8.90;4.40;;;;;;;18.63;41.54;98587.55;106875;1277;22764;-78
2023/05/04 11:28:36;;;;;;;8.90;4.30;;;;;;;18.74;42.35;98583.52;106959;1277;22550;-78
2023/05/04 11:31:15;;;;;;;6.40;4.20;;;;;;;18.87;41.38;98577.43;106925;1277;25281;-76